Time;durP1;ratioP1;P1;durP2;ratioP2;P2;SDS_P1;SDS_P2;PMS_P1;PMS_P2;Temp;Humidity;BMP_temperature;BMP_pressure;BME280_temperature;BME280_humidity;BME280_pressure;Samples;Min_cycle;Max_cycle;Signal;HPM_P1;HPM_P2
2021/06/18 00:01:57;;;;;;;5.70;5.18;;;;;;;;;;4999855;28;20511;-61
2021/06/18 00:04:22;;;;;;;6.03;5.18;;;;;;;;;;4996688;28;20397;-60
2021/06/18 00:06:48;;;;;;;5.20;4.50;;;;;;;;;;5002919;28;20464;-60
2021/06/18 00:09:13;;;;;;;6.82;4.85;;;;;;;;;;5002419;28;20408;-60
2021/06/18 00:11:39;;;;;;;5.47;4.50;;;;;;;;;;4998632;28;20026;-62
2021/06/18 00:14:05;;;;;;;5.18;4.60;;;;;;;;;;5000406;28;20041;-62
2021/06/18 00:16:32;;;;;;;6.03;4.50;;;;;;;;;;5004285;28;20022;-61
2021/06/18 00:18:58;;;;;;;5.22;4.22;;;;;;;;;;4995437;28;20369;-60
2021/06/18 00:21:23;;;;;;;10.05;3.88;;;;;;;;;;5016248;28;20030;-60
2021/06/18 00:23:48;;;;;;;4.18;3.42;;;;;;;;;;5002715;28;20455;-61
2021/06/18 00:26:14;;;;;;;4.05;3.45;;;;;;;;;;4999818;28;20026;-61
2021/06/18 00:28:39;;;;;;;3.45;3.15;;;;;;;;;;5003928;28;20076;-61
2021/06/18 00:31:05;;;;;;;4.93;3.30;;;;;;;;;;5001679;28;20042;-61
2021/06/18 00:33:30;;;;;;;3.88;3.42;;;;;;;;;;5006260;28;20030;-61
2021/06/18 00:35:57;;;;;;;3.60;3.10;;;;;;;;;;5000291;28;20100;-61
2021/06/18 00:38:23;;;;;;;4.10;3.20;;;;;;;;;;4999862;28;20480;-61
2021/06/18 00:40:48;;;;;;;3.85;2.90;;;;;;;;;;4998717;28;20037;-60
2021/06/18 00:43:15;;;;;;;7.20;3.05;;;;;;;;;;4997059;28;20542;-60
2021/06/18 00:45:40;;;;;;;3.40;3.10;;;;;;;;;;5001386;28;20104;-60
2021/06/18 00:48:06;;;;;;;5.40;2.83;;;;;;;;;;5001556;28;20148;-60
2021/06/18 00:50:33;;;;;;;4.57;2.90;;;;;;;;;;5002709;28;20049;-60
2021/06/18 00:52:58;;;;;;;4.03;2.80;;;;;;;;;;5006058;28;20476;-61
2021/06/18 00:55:25;;;;;;;4.30;2.88;;;;;;;;;;4999813;28;20056;-61
2021/06/18 00:57:51;;;;;;;3.20;2.78;;;;;;;;;;5001950;28;20156;-61
2021/06/18 01:00:17;;;;;;;8.13;3.05;;;;;;;;;;5000639;28;20042;-61
2021/06/18 01:02:42;;;;;;;5.20;2.60;;;;;;;;;;5000339;28;20050;-61
2021/06/18 01:05:14;;;;;;;4.43;2.75;;;;;;;;;;5000671;28;20026;-61
2021/06/18 01:07:46;;;;;;;4.20;2.50;;;;;;;;;;4998066;28;20026;-61
2021/06/18 01:10:19;;;;;;;2.72;2.53;;;;;;;;;;4998726;28;20125;-60
2021/06/18 01:13:17;;;;;;;5.00;3.10;;;;;;;;;;4994483;28;20030;-60
2021/06/18 01:16:04;;;;;;;5.03;2.83;;;;;;;;;;4994452;28;20037;-61
2021/06/18 01:18:44;;;;;;;5.03;2.60;;;;;;;;;;4997000;28;20026;-61
2021/06/18 01:21:20;;;;;;;4.07;2.70;;;;;;;;;;4991500;28;20030;-61
2021/06/18 01:24:18;;;;;;;3.63;2.88;;;;;;;;;;5001187;28;20518;-61
2021/06/18 01:26:57;;;;;;;3.80;2.90;;;;;;;;;;5004807;28;20029;-60
2021/06/18 01:29:24;;;;;;;3.22;2.53;;;;;;;;;;5004812;28;20036;-61
2021/06/18 01:31:51;;;;;;;2.60;2.40;;;;;;;;;;5007063;28;20518;-61
2021/06/18 01:34:23;;;;;;;3.13;2.83;;;;;;;;;;5001118;28;20118;-60
2021/06/18 01:36:52;;;;;;;4.30;2.78;;;;;;;;;;5007123;28;20511;-60
2021/06/18 01:39:20;;;;;;;4.00;2.60;;;;;;;;;;5002564;28;20459;-60
2021/06/18 01:41:49;;;;;;;4.18;2.80;;;;;;;;;;5002633;28;20055;-61
2021/06/18 01:44:15;;;;;;;3.30;2.67;;;;;;;;;;5005838;28;20327;-60
2021/06/18 01:46:41;;;;;;;3.85;2.75;;;;;;;;;;5005843;28;20056;-60
2021/06/18 01:49:10;;;;;;;6.00;2.70;;;;;;;;;;4998918;28;20030;-61
2021/06/18 01:51:37;;;;;;;3.33;2.67;;;;;;;;;;5003514;28;20030;-60
2021/06/18 01:54:04;;;;;;;2.70;2.50;;;;;;;;;;5008373;28;20082;-61
2021/06/18 01:56:32;;;;;;;4.38;2.55;;;;;;;;;;5008680;28;20060;-61
2021/06/18 01:59:00;;;;;;;2.75;2.53;;;;;;;;;;5002458;28;20137;-61
2021/06/18 02:01:30;;;;;;;3.10;2.80;;;;;;;;;;5018807;28;20445;-61
2021/06/18 02:03:56;;;;;;;3.55;2.67;;;;;;;;;;4999466;28;20134;-60
2021/06/18 02:06:22;;;;;;;4.03;2.63;;;;;;;;;;5014339;28;20141;-60
2021/06/18 02:08:51;;;;;;;3.45;3.10;;;;;;;;;;5003792;28;20034;-60
2021/06/18 02:11:17;;;;;;;3.30;3.00;;;;;;;;;;5002881;28;20034;-61
2021/06/18 02:13:44;;;;;;;3.40;3.00;;;;;;;;;;5003624;28;20268;-61
2021/06/18 02:16:15;;;;;;;4.43;2.70;;;;;;;;;;5006801;28;20361;-61
2021/06/18 02:18:42;;;;;;;3.40;2.83;;;;;;;;;;5002360;28;20026;-61
2021/06/18 02:21:08;;;;;;;3.03;2.72;;;;;;;;;;5005727;28;20048;-61
2021/06/18 02:23:35;;;;;;;4.57;2.88;;;;;;;;;;5002826;28;20037;-61
2021/06/18 02:26:04;;;;;;;3.50;3.00;;;;;;;;;;5001934;28;20018;-61
2021/06/18 02:28:29;;;;;;;5.88;3.13;;;;;;;;;;5005948;28;20277;-61
2021/06/18 02:30:55;;;;;;;6.53;3.20;;;;;;;;;;5003247;28;20039;-61
2021/06/18 02:33:21;;;;;;;4.45;3.03;;;;;;;;;;5001960;28;20404;-61
2021/06/18 02:35:48;;;;;;;3.15;2.72;;;;;;;;;;5006006;28;20081;-62
2021/06/18 02:38:14;;;;;;;3.28;2.97;;;;;;;;;;5006084;28;20041;-60
2021/06/18 02:40:42;;;;;;;3.17;2.88;;;;;;;;;;5004132;28;20030;-60
2021/06/18 02:43:07;;;;;;;4.28;2.90;;;;;;;;;;5004268;28;20030;-60
2021/06/18 02:45:33;;;;;;;5.15;2.80;;;;;;;;;;5006571;28;20037;-61
2021/06/18 02:48:24;;;;;;;3.67;2.58;;;;;;;;;;5005073;28;20026;-60
2021/06/18 02:50:50;;;;;;;4.95;3.00;;;;;;;;;;5003233;28;20484;-61
2021/06/18 02:53:36;;;;;;;3.10;2.80;;;;;;;;;;5004121;28;20439;-61
2021/06/18 02:56:22;;;;;;;3.33;2.97;;;;;;;;;;5001852;28;20026;-61
2021/06/18 02:59:02;;;;;;;3.95;3.53;;;;;;;;;;5004438;28;20120;-60
2021/06/18 03:01:30;;;;;;;3.42;2.90;;;;;;;;;;5005756;28;20036;-60
2021/06/18 03:03:58;;;;;;;5.13;3.42;;;;;;;;;;5004317;28;20059;-60
2021/06/18 03:06:24;;;;;;;3.25;2.95;;;;;;;;;;5004103;28;20129;-60
2021/06/18 03:09:04;;;;;;;3.72;2.90;;;;;;;;;;4993397;28;20136;-60
2021/06/18 03:11:38;;;;;;;3.50;3.20;;;;;;;;;;5002956;28;20386;-60
2021/06/18 03:14:09;;;;;;;3.80;3.00;;;;;;;;;;5003592;28;20109;-62
2021/06/18 03:16:37;;;;;;;4.47;3.00;;;;;;;;;;5007203;28;20053;-60
2021/06/18 03:19:05;;;;;;;3.88;3.03;;;;;;;;;;5000456;28;20046;-61
2021/06/18 03:21:34;;;;;;;3.37;2.90;;;;;;;;;;5001691;28;20429;-62
2021/06/18 03:24:02;;;;;;;5.20;3.10;;;;;;;;;;4999395;28;20108;-62
2021/06/18 03:26:28;;;;;;;3.10;2.78;;;;;;;;;;5000517;28;20022;-61
2021/06/18 03:28:55;;;;;;;3.55;3.17;;;;;;;;;;4992732;28;20035;-61
2021/06/18 03:31:22;;;;;;;4.80;3.03;;;;;;;;;;5000759;28;20548;-61
2021/06/18 03:33:49;;;;;;;3.10;2.78;;;;;;;;;;5005726;28;20033;-61
2021/06/18 03:36:20;;;;;;;3.25;2.90;;;;;;;;;;5002821;28;20034;-62
2021/06/18 03:38:46;;;;;;;3.25;2.95;;;;;;;;;;5008262;28;20025;-61
2021/06/18 03:41:12;;;;;;;3.40;2.85;;;;;;;;;;5003923;28;20033;-61
2021/06/18 03:43:37;;;;;;;5.38;3.15;;;;;;;;;;5006599;28;20049;-61
2021/06/18 03:46:05;;;;;;;3.70;3.15;;;;;;;;;;5002489;28;20440;-61
2021/06/18 03:48:32;;;;;;;3.75;3.05;;;;;;;;;;5002414;28;20122;-61
2021/06/18 03:50:59;;;;;;;5.53;3.45;;;;;;;;;;5001569;28;20029;-61
2021/06/18 03:53:25;;;;;;;7.93;3.42;;;;;;;;;;5002622;28;20606;-62
2021/06/18 03:55:51;;;;;;;3.67;3.38;;;;;;;;;;5002381;28;20021;-61
2021/06/18 03:58:21;;;;;;;3.97;3.58;;;;;;;;;;5000527;28;20057;-61
2021/06/18 04:00:49;;;;;;;4.93;3.50;;;;;;;;;;5004141;28;20081;-61
2021/06/18 04:03:15;;;;;;;6.18;3.83;;;;;;;;;;5001371;28;20030;-61
2021/06/18 04:05:44;;;;;;;3.95;3.22;;;;;;;;;;5002144;28;20022;-61
2021/06/18 04:08:12;;;;;;;4.00;3.60;;;;;;;;;;5005477;28;20080;-61
2021/06/18 04:10:39;;;;;;;5.22;3.90;;;;;;;;;;5006350;28;20570;-61
2021/06/18 04:13:05;;;;;;;5.20;3.85;;;;;;;;;;5002670;28;20038;-61
2021/06/18 04:15:30;;;;;;;3.90;3.55;;;;;;;;;;4998695;28;20547;-61
2021/06/18 04:17:58;;;;;;;4.38;3.97;;;;;;;;;;5001429;28;20037;-61
2021/06/18 04:20:25;;;;;;;5.00;4.10;;;;;;;;;;4997700;28;20489;-61
2021/06/18 04:22:51;;;;;;;4.53;3.55;;;;;;;;;;4996056;28;20547;-61
2021/06/18 04:25:17;;;;;;;5.18;3.50;;;;;;;;;;4999157;28;20158;-61
2021/06/18 04:27:43;;;;;;;4.88;3.13;;;;;;;;;;5003096;28;20104;-61
2021/06/18 04:30:10;;;;;;;4.88;3.60;;;;;;;;;;5001316;28;20026;-61
2021/06/18 04:32:36;;;;;;;3.90;3.50;;;;;;;;;;5000391;28;20033;-61
2021/06/18 04:35:03;;;;;;;4.30;3.75;;;;;;;;;;5001380;28;20512;-61
2021/06/18 04:37:29;;;;;;;4.18;3.40;;;;;;;;;;5006374;28;20040;-61
2021/06/18 04:39:55;;;;;;;6.18;3.72;;;;;;;;;;5005443;28;20101;-61
2021/06/18 04:42:20;;;;;;;3.88;3.55;;;;;;;;;;5002005;28;20034;-61
2021/06/18 04:44:46;;;;;;;4.10;3.80;;;;;;;;;;5000112;28;20018;-61
2021/06/18 04:47:11;;;;;;;4.32;3.85;;;;;;;;;;5001507;28;20108;-61
2021/06/18 04:49:37;;;;;;;4.60;3.75;;;;;;;;;;5005958;28;20068;-61
2021/06/18 04:52:03;;;;;;;4.05;3.20;;;;;;;;;;5003610;28;20026;-61
2021/06/18 04:54:28;;;;;;;5.32;4.45;;;;;;;;;;5003713;28;20032;-62
2021/06/18 04:56:54;;;;;;;7.97;6.05;;;;;;;;;;4995649;28;20029;-61
2021/06/18 04:59:20;;;;;;;7.60;5.00;;;;;;;;;;5001033;28;20496;-61
2021/06/18 05:01:46;;;;;;;4.63;4.20;;;;;;;;;;5009367;28;20505;-61
2021/06/18 05:04:12;;;;;;;5.03;3.95;;;;;;;;;;5005451;28;20557;-61
2021/06/18 05:06:37;;;;;;;4.53;4.13;;;;;;;;;;5002903;28;20026;-61
2021/06/18 05:09:04;;;;;;;5.00;4.38;;;;;;;;;;5021554;28;20454;-61
2021/06/18 05:11:29;;;;;;;7.93;5.20;;;;;;;;;;4997768;28;20554;-60
2021/06/18 05:13:55;;;;;;;8.95;6.15;;;;;;;;;;5009448;28;20109;-60
2021/06/18 05:16:20;;;;;;;7.95;5.20;;;;;;;;;;5000693;28;20058;-60
2021/06/18 05:18:45;;;;;;;6.55;3.70;;;;;;;;;;5003866;28;20061;-60
2021/06/18 05:21:11;;;;;;;6.80;3.90;;;;;;;;;;4999427;28;20121;-60
2021/06/18 05:23:36;;;;;;;6.68;5.28;;;;;;;;;;5003265;28;20032;-60
2021/06/18 05:26:02;;;;;;;8.23;6.82;;;;;;;;;;4999187;28;20033;-60
2021/06/18 05:28:27;;;;;;;7.90;6.00;;;;;;;;;;5004573;28;20096;-60
2021/06/18 05:30:52;;;;;;;5.97;5.38;;;;;;;;;;5008283;28;20026;-60
2021/06/18 05:33:18;;;;;;;4.78;4.30;;;;;;;;;;5003822;28;20034;-60
2021/06/18 05:35:45;;;;;;;5.70;5.15;;;;;;;;;;5004589;28;20030;-60
2021/06/18 05:38:11;;;;;;;9.05;6.68;;;;;;;;;;5001412;28;20413;-60
2021/06/18 05:40:41;;;;;;;6.75;5.65;;;;;;;;;;5005114;28;20396;-60
2021/06/18 05:43:08;;;;;;;8.45;5.63;;;;;;;;;;5004750;28;20034;-60
2021/06/18 05:45:35;;;;;;;5.90;5.38;;;;;;;;;;5007696;28;20511;-60
2021/06/18 05:48:01;;;;;;;7.80;5.60;;;;;;;;;;4998405;28;20030;-60
2021/06/18 05:50:27;;;;;;;7.10;5.93;;;;;;;;;;5006720;28;20026;-60
2021/06/18 05:52:52;;;;;;;7.30;5.60;;;;;;;;;;4999922;28;20504;-60
2021/06/18 05:55:18;;;;;;;7.03;5.75;;;;;;;;;;5003374;28;20057;-60
2021/06/18 05:57:43;;;;;;;8.00;6.18;;;;;;;;;;5004765;28;20064;-60
2021/06/18 06:00:09;;;;;;;7.13;6.38;;;;;;;;;;5003429;28;20209;-60
2021/06/18 06:02:34;;;;;;;7.50;6.05;;;;;;;;;;5001546;28;20037;-60
2021/06/18 06:05:00;;;;;;;7.93;5.93;;;;;;;;;;4999442;28;20033;-60
2021/06/18 06:07:25;;;;;;;6.80;6.20;;;;;;;;;;5003605;28;20026;-60
2021/06/18 06:09:51;;;;;;;8.73;6.30;;;;;;;;;;4999107;28;20052;-60
2021/06/18 06:12:17;;;;;;;7.53;6.20;;;;;;;;;;5001470;28;20114;-60
2021/06/18 06:14:42;;;;;;;6.97;6.38;;;;;;;;;;5003687;28;20030;-60
2021/06/18 06:17:07;;;;;;;7.40;6.45;;;;;;;;;;5001243;28;20034;-60
2021/06/18 06:19:33;;;;;;;11.13;6.18;;;;;;;;;;4996850;28;20133;-60
2021/06/18 06:21:58;;;;;;;7.75;6.85;;;;;;;;;;5005497;28;20459;-60
2021/06/18 06:24:24;;;;;;;9.15;6.32;;;;;;;;;;5003473;28;20034;-60
2021/06/18 06:26:49;;;;;;;9.18;6.38;;;;;;;;;;4997561;28;20521;-60
2021/06/18 06:29:15;;;;;;;6.35;5.65;;;;;;;;;;5004308;28;20408;-60
2021/06/18 06:31:43;;;;;;;6.82;5.63;;;;;;;;;;5005991;28;20018;-60
2021/06/18 06:34:09;;;;;;;6.07;5.53;;;;;;;;;;5002560;28;20025;-60
2021/06/18 06:36:35;;;;;;;6.22;5.60;;;;;;;;;;4998868;28;20882;-59
2021/06/18 06:39:02;;;;;;;10.50;7.90;;;;;;;;;;4997101;28;20077;-60
2021/06/18 06:41:27;;;;;;;5.72;5.22;;;;;;;;;;4997758;28;20037;-60
2021/06/18 06:43:53;;;;;;;5.95;5.32;;;;;;;;;;5016938;28;20034;-60
2021/06/18 06:46:20;;;;;;;5.55;5.05;;;;;;;;;;4999280;28;20026;-60
2021/06/18 06:48:47;;;;;;;5.45;4.90;;;;;;;;;;5003252;28;20087;-60
2021/06/18 06:51:12;;;;;;;5.93;4.38;;;;;;;;;;5001918;28;20470;-60
2021/06/18 06:53:38;;;;;;;6.93;4.85;;;;;;;;;;4997688;28;20046;-60
2021/06/18 06:56:03;;;;;;;5.70;4.70;;;;;;;;;;5001987;28;20083;-60
2021/06/18 06:58:29;;;;;;;5.80;5.00;;;;;;;;;;5002981;28;20380;-60
2021/06/18 07:00:54;;;;;;;5.82;4.90;;;;;;;;;;5002993;28;20039;-60
2021/06/18 07:03:20;;;;;;;5.90;4.80;;;;;;;;;;5000340;28;20030;-60
2021/06/18 07:05:45;;;;;;;6.15;4.90;;;;;;;;;;5006083;28;20029;-60
2021/06/18 07:08:16;;;;;;;5.38;4.60;;;;;;;;;;4998322;28;20038;-60
2021/06/18 07:10:41;;;;;;;7.07;5.00;;;;;;;;;;5002219;28;20026;-60
2021/06/18 07:13:06;;;;;;;4.63;4.22;;;;;;;;;;4999455;28;20025;-60
2021/06/18 07:15:32;;;;;;;5.60;5.10;;;;;;;;;;5002238;28;20168;-60
2021/06/18 07:17:57;;;;;;;5.70;5.20;;;;;;;;;;4998732;28;20022;-60
2021/06/18 07:20:23;;;;;;;5.53;4.85;;;;;;;;;;5007304;28;20026;-60
2021/06/18 07:22:48;;;;;;;7.72;5.18;;;;;;;;;;5002072;28;20433;-60
2021/06/18 07:25:14;;;;;;;6.25;5.03;;;;;;;;;;5002219;28;20084;-60
2021/06/18 07:27:39;;;;;;;5.40;4.90;;;;;;;;;;4998761;28;20053;-61
2021/06/18 07:30:05;;;;;;;8.40;5.05;;;;;;;;;;5015472;28;20034;-61
2021/06/18 07:32:30;;;;;;;5.28;4.78;;;;;;;;;;4998598;28;20104;-60
2021/06/18 07:34:56;;;;;;;5.43;4.90;;;;;;;;;;5000860;28;20484;-60
2021/06/18 07:37:21;;;;;;;5.10;4.57;;;;;;;;;;4999108;28;20061;-60
2021/06/18 07:39:48;;;;;;;5.93;4.90;;;;;;;;;;5000606;28;20076;-60
2021/06/18 07:42:13;;;;;;;5.38;4.68;;;;;;;;;;5008788;28;20133;-60
2021/06/18 07:44:39;;;;;;;5.30;4.80;;;;;;;;;;5000646;28;20563;-60
2021/06/18 07:47:07;;;;;;;7.47;4.90;;;;;;;;;;4994974;28;20038;-60
2021/06/18 07:49:34;;;;;;;5.80;5.13;;;;;;;;;;5000470;28;20054;-60
2021/06/18 07:52:00;;;;;;;5.32;4.22;;;;;;;;;;4998613;28;20064;-60
2021/06/18 07:54:26;;;;;;;7.32;4.70;;;;;;;;;;4999629;28;20038;-60
2021/06/18 07:56:52;;;;;;;5.70;4.65;;;;;;;;;;5003418;28;20025;-60
2021/06/18 07:59:18;;;;;;;6.68;4.70;;;;;;;;;;4999874;28;20564;-61
2021/06/18 08:01:43;;;;;;;6.72;5.20;;;;;;;;;;5000891;28;20116;-60
2021/06/18 08:04:08;;;;;;;5.07;4.68;;;;;;;;;;5003377;28;20443;-60
2021/06/18 08:06:34;;;;;;;5.40;4.88;;;;;;;;;;4999811;28;20014;-60
2021/06/18 08:09:00;;;;;;;7.72;4.97;;;;;;;;;;5000532;28;20030;-60
2021/06/18 08:11:25;;;;;;;5.47;4.97;;;;;;;;;;5001877;28;20065;-60
2021/06/18 08:13:51;;;;;;;7.22;5.03;;;;;;;;;;4995340;28;20164;-60
2021/06/18 08:16:16;;;;;;;4.90;4.47;;;;;;;;;;5000471;28;20488;-60
2021/06/18 08:18:42;;;;;;;5.75;5.15;;;;;;;;;;4996527;28;20390;-60
2021/06/18 08:21:09;;;;;;;7.57;5.10;;;;;;;;;;4997246;28;20022;-61
2021/06/18 08:23:36;;;;;;;5.45;4.95;;;;;;;;;;4999588;28;20443;-60
2021/06/18 08:26:01;;;;;;;6.35;5.53;;;;;;;;;;5003045;28;20026;-60
2021/06/18 08:28:27;;;;;;;5.70;4.93;;;;;;;;;;4995411;28;20026;-60
2021/06/18 08:30:52;;;;;;;7.30;5.70;;;;;;;;;;4997624;28;20022;-61
2021/06/18 08:33:19;;;;;;;5.93;5.43;;;;;;;;;;4997229;28;20026;-61
2021/06/18 08:35:44;;;;;;;6.32;5.13;;;;;;;;;;5002693;28;20036;-61
2021/06/18 08:38:10;;;;;;;6.53;4.82;;;;;;;;;;4997902;28;20539;-60
2021/06/18 08:40:35;;;;;;;6.43;5.10;;;;;;;;;;5001865;28;20596;-61
2021/06/18 08:43:03;;;;;;;8.48;5.43;;;;;;;;;;5001129;28;20029;-60
2021/06/18 08:45:29;;;;;;;6.18;5.10;;;;;;;;;;4994061;28;20159;-60
2021/06/18 08:47:55;;;;;;;5.47;4.97;;;;;;;;;;5000599;28;20450;-60
2021/06/18 08:50:24;;;;;;;6.78;5.40;;;;;;;;;;5001360;28;20088;-60
2021/06/18 08:52:57;;;;;;;7.57;5.25;;;;;;;;;;5001700;28;20030;-60
2021/06/18 08:55:25;;;;;;;6.65;5.32;;;;;;;;;;4999717;28;20092;-60
2021/06/18 08:57:53;;;;;;;6.07;5.45;;;;;;;;;;5000998;28;20034;-60
2021/06/18 09:00:21;;;;;;;5.72;5.22;;;;;;;;;;4997103;28;20027;-60
2021/06/18 09:02:46;;;;;;;7.70;5.05;;;;;;;;;;4997672;28;20560;-60
2021/06/18 09:05:13;;;;;;;5.78;5.28;;;;;;;;;;4994387;28;20121;-60
2021/06/18 09:07:59;;;;;;;5.70;5.10;;;;;;;;;;5000085;28;20022;-60
2021/06/18 09:10:33;;;;;;;5.78;5.03;;;;;;;;;;5000990;28;20064;-60
2021/06/18 09:13:05;;;;;;;6.18;5.20;;;;;;;;;;5002880;28;20535;-61
2021/06/18 09:15:30;;;;;;;5.72;5.10;;;;;;;;;;5001206;28;20049;-60
2021/06/18 09:17:56;;;;;;;6.18;5.60;;;;;;;;;;5001613;28;20490;-61
2021/06/18 09:20:24;;;;;;;6.00;5.40;;;;;;;;;;5004035;28;20470;-59
2021/06/18 09:22:49;;;;;;;7.82;5.40;;;;;;;;;;4998003;28;20058;-60
2021/06/18 09:25:18;;;;;;;9.20;5.45;;;;;;;;;;5002975;28;20034;-59
2021/06/18 09:27:49;;;;;;;6.15;5.55;;;;;;;;;;4999450;28;20060;-59
2021/06/18 09:30:31;;;;;;;7.30;4.97;;;;;;;;;;4995654;28;20509;-60
2021/06/18 09:33:11;;;;;;;6.03;5.13;;;;;;;;;;4998065;28;20137;-60
2021/06/18 09:36:04;;;;;;;5.63;5.13;;;;;;;;;;4997642;28;20035;-61
2021/06/18 09:38:56;;;;;;;8.63;5.32;;;;;;;;;;5004280;28;20152;-60
2021/06/18 09:41:42;;;;;;;8.70;7.03;;;;;;;;;;5001439;28;20038;-60
2021/06/18 09:44:16;;;;;;;10.20;9.07;;;;;;;;;;4993599;28;20468;-60
2021/06/18 09:46:43;;;;;;;7.25;5.68;;;;;;;;;;5006594;28;20033;-60
2021/06/18 09:49:37;;;;;;;6.55;5.78;;;;;;;;;;5007849;28;20492;-60
2021/06/18 09:52:11;;;;;;;6.03;5.10;;;;;;;;;;4998970;28;20111;-60
2021/06/18 09:54:42;;;;;;;5.88;5.38;;;;;;;;;;4998740;28;20137;-61
2021/06/18 09:57:20;;;;;;;6.05;5.25;;;;;;;;;;5003812;28;20047;-61
2021/06/18 09:59:53;;;;;;;6.75;4.55;;;;;;;;;;5003618;28;20029;-62
2021/06/18 10:02:21;;;;;;;5.07;4.47;;;;;;;;;;5002619;28;20026;-61
2021/06/18 10:04:49;;;;;;;5.20;4.70;;;;;;;;;;5007823;28;20570;-62
2021/06/18 10:07:15;;;;;;;4.70;4.35;;;;;;;;;;5001672;28;20497;-61
2021/06/18 10:09:40;;;;;;;5.63;4.90;;;;;;;;;;5000900;28;20046;-61
2021/06/18 10:12:07;;;;;;;5.00;4.60;;;;;;;;;;5001380;28;20033;-62
2021/06/18 10:14:33;;;;;;;5.72;4.22;;;;;;;;;;4999345;28;20071;-61
2021/06/18 10:17:00;;;;;;;4.80;4.20;;;;;;;;;;4997803;28;20516;-62
2021/06/18 10:19:27;;;;;;;5.78;4.55;;;;;;;;;;5005122;28;20439;-63
2021/06/18 10:22:02;;;;;;;5.03;4.63;;;;;;;;;;5001149;28;20084;-60
2021/06/18 10:24:36;;;;;;;5.78;4.25;;;;;;;;;;5000735;28;20034;-61
2021/06/18 10:27:03;;;;;;;7.63;4.57;;;;;;;;;;5001223;28;20045;-61
2021/06/18 10:29:38;;;;;;;4.95;4.38;;;;;;;;;;5004465;28;20029;-61
2021/06/18 10:32:33;;;;;;;6.13;4.38;;;;;;;;;;5003883;28;20495;-62
2021/06/18 10:35:01;;;;;;;4.50;4.10;;;;;;;;;;4995801;28;20101;-62
2021/06/18 10:37:29;;;;;;;5.03;4.60;;;;;;;;;;5000910;28;20022;-62
2021/06/18 10:39:57;;;;;;;5.78;4.00;;;;;;;;;;5005376;28;20268;-62
2021/06/18 10:42:23;;;;;;;4.63;4.13;;;;;;;;;;5007446;28;20041;-61
2021/06/18 10:44:51;;;;;;;4.85;4.45;;;;;;;;;;5003569;28;20033;-61
2021/06/18 10:47:28;;;;;;;4.63;4.13;;;;;;;;;;5005169;28;20033;-61
2021/06/18 10:49:54;;;;;;;4.93;4.53;;;;;;;;;;5008225;28;20351;-61
2021/06/18 10:52:40;;;;;;;4.47;4.10;;;;;;;;;;4995737;28;20572;-61
2021/06/18 10:55:06;;;;;;;4.88;4.45;;;;;;;;;;5006028;28;20117;-61
2021/06/18 10:57:32;;;;;;;5.95;3.90;;;;;;;;;;5000901;28;20022;-62
2021/06/18 11:00:09;;;;;;;4.45;4.03;;;;;;;;;;5001262;28;20534;-61
2021/06/18 11:02:38;;;;;;;5.70;4.10;;;;;;;;;;5003029;28;20030;-61
2021/06/18 11:05:25;;;;;;;4.93;4.43;;;;;;;;;;4998932;28;20053;-62
2021/06/18 11:08:14;;;;;;;6.28;4.10;;;;;;;;;;4998288;28;20026;-60
2021/06/18 11:10:39;;;;;;;5.35;3.97;;;;;;;;;;4998030;28;20033;-61
2021/06/18 11:13:12;;;;;;;4.38;3.70;;;;;;;;;;5001387;28;20380;-62
2021/06/18 11:15:41;;;;;;;6.03;4.05;;;;;;;;;;5004033;28;20026;-62
2021/06/18 11:18:18;;;;;;;4.45;4.05;;;;;;;;;;5010721;28;20547;-62
2021/06/18 11:20:46;;;;;;;6.18;3.78;;;;;;;;;;5006419;28;20088;-61
2021/06/18 11:23:30;;;;;;;7.82;4.07;;;;;;;;;;4998781;28;20508;-60
2021/06/18 11:26:21;;;;;;;7.82;4.00;;;;;;;;;;5000977;28;20042;-61
2021/06/18 11:28:48;;;;;;;5.88;4.07;;;;;;;;;;5004437;28;20149;-60
2021/06/18 11:31:21;;;;;;;5.65;3.78;;;;;;;;;;4998926;28;20038;-62
2021/06/18 11:33:50;;;;;;;5.15;4.00;;;;;;;;;;4995273;28;21111;-62
2021/06/18 11:36:17;;;;;;;5.13;4.30;;;;;;;;;;5001391;28;20034;-60
2021/06/18 11:38:47;;;;;;;4.35;3.78;;;;;;;;;;5000539;28;20037;-60
2021/06/18 11:41:17;;;;;;;4.18;3.78;;;;;;;;;;4995890;28;20093;-61
2021/06/18 11:43:42;;;;;;;5.18;4.07;;;;;;;;;;4999912;28;20045;-61
2021/06/18 11:46:08;;;;;;;8.00;3.55;;;;;;;;;;5007188;28;20074;-63
2021/06/18 11:48:34;;;;;;;4.90;3.58;;;;;;;;;;5001428;28;20024;-62
2021/06/18 11:51:00;;;;;;;5.38;3.90;;;;;;;;;;5001098;28;20155;-62
2021/06/18 11:53:39;;;;;;;4.40;3.75;;;;;;;;;;5005280;28;20022;-62
2021/06/18 11:56:06;;;;;;;6.22;3.72;;;;;;;;;;4998969;28;20032;-62
2021/06/18 11:58:37;;;;;;;4.22;3.65;;;;;;;;;;4993036;28;20465;-62
2021/06/18 12:01:24;;;;;;;3.72;3.42;;;;;;;;;;5005486;28;20022;-62
2021/06/18 12:03:53;;;;;;;4.43;4.03;;;;;;;;;;5003740;28;20424;-62
2021/06/18 12:06:26;;;;;;;4.55;3.92;;;;;;;;;;5003903;28;20025;-62
2021/06/18 12:09:05;;;;;;;4.97;3.60;;;;;;;;;;5001315;28;20034;-62
2021/06/18 12:11:32;;;;;;;6.75;3.80;;;;;;;;;;5000768;28;20025;-62
2021/06/18 12:13:58;;;;;;;4.53;3.65;;;;;;;;;;5002199;28;20022;-62
2021/06/18 12:16:28;;;;;;;4.18;3.75;;;;;;;;;;5002038;28;20034;-62
2021/06/18 12:18:54;;;;;;;4.93;3.70;;;;;;;;;;5002246;28;20034;-62
2021/06/18 12:21:24;;;;;;;6.75;3.70;;;;;;;;;;5003525;28;20057;-62
2021/06/18 12:24:04;;;;;;;15.57;4.85;;;;;;;;;;5002381;28;20107;-62
2021/06/18 12:26:30;;;;;;;7.38;4.10;;;;;;;;;;5006476;28;20108;-62
2021/06/18 12:28:57;;;;;;;6.68;4.25;;;;;;;;;;5000496;28;20034;-62
2021/06/18 12:31:23;;;;;;;6.28;3.70;;;;;;;;;;5000625;28;20412;-61
2021/06/18 12:33:48;;;;;;;7.65;3.60;;;;;;;;;;4998690;28;20049;-62
2021/06/18 12:36:18;;;;;;;6.15;3.95;;;;;;;;;;5005393;28;20530;-62
2021/06/18 12:38:48;;;;;;;5.50;3.70;;;;;;;;;;4995400;28;20100;-62
2021/06/18 12:41:27;;;;;;;7.00;3.80;;;;;;;;;;5000083;28;20029;-62
2021/06/18 12:44:03;;;;;;;8.15;4.20;;;;;;;;;;5003100;28;20041;-62
2021/06/18 12:46:29;;;;;;;4.15;3.75;;;;;;;;;;5005081;28;20049;-61
2021/06/18 12:49:05;;;;;;;4.93;4.03;;;;;;;;;;4998693;28;20058;-61
2021/06/18 12:51:31;;;;;;;5.95;3.85;;;;;;;;;;5005071;28;20432;-62
2021/06/18 12:54:07;;;;;;;6.38;3.42;;;;;;;;;;5003910;28;20072;-63
2021/06/18 12:56:41;;;;;;;10.10;3.70;;;;;;;;;;4992710;28;20042;-63
2021/06/18 12:59:12;;;;;;;6.28;3.38;;;;;;;;;;4999973;28;20034;-63
2021/06/18 13:01:39;;;;;;;9.13;3.30;;;;;;;;;;5003288;28;20029;-63
2021/06/18 13:04:09;;;;;;;3.80;3.38;;;;;;;;;;5004406;28;20916;-62
2021/06/18 13:06:39;;;;;;;6.40;3.53;;;;;;;;;;5001003;28;20072;-63
2021/06/18 13:09:05;;;;;;;6.93;3.50;;;;;;;;;;4997904;28;20118;-62
2021/06/18 13:11:50;;;;;;;4.53;3.05;;;;;;;;;;4999097;28;20116;-62
2021/06/18 13:14:27;;;;;;;4.20;3.08;;;;;;;;;;5000455;28;20040;-62
2021/06/18 13:16:58;;;;;;;6.97;3.45;;;;;;;;;;5003739;28;20489;-62
2021/06/18 13:19:48;;;;;;;6.18;3.30;;;;;;;;;;5001062;28;20030;-62
2021/06/18 13:22:18;;;;;;;5.50;3.42;;;;;;;;;;5005321;28;20057;-63
2021/06/18 13:24:58;;;;;;;4.97;3.28;;;;;;;;;;5007174;28;20026;-63
2021/06/18 13:27:28;;;;;;;3.67;3.22;;;;;;;;;;5003324;28;20113;-62
2021/06/18 13:29:57;;;;;;;5.90;3.40;;;;;;;;;;5002285;28;20461;-62
2021/06/18 13:32:28;;;;;;;7.47;3.47;;;;;;;;;;5004090;28;20027;-62
2021/06/18 13:34:54;;;;;;;5.20;3.35;;;;;;;;;;5006677;28;20038;-62
2021/06/18 13:37:30;;;;;;;5.22;3.28;;;;;;;;;;5008606;28;20464;-63
2021/06/18 13:40:17;;;;;;;4.70;3.45;;;;;;;;;;5000018;28;20038;-63
2021/06/18 13:42:43;;;;;;;5.18;3.08;;;;;;;;;;5006352;28;20057;-63
2021/06/18 13:45:09;;;;;;;5.07;3.47;;;;;;;;;;5005403;28;20064;-63
2021/06/18 13:47:36;;;;;;;5.38;3.30;;;;;;;;;;5004147;28;20096;-63
2021/06/18 13:50:04;;;;;;;4.82;3.47;;;;;;;;;;5003362;28;20029;-63
2021/06/18 13:52:31;;;;;;;3.67;3.05;;;;;;;;;;5002232;28;20052;-63
2021/06/18 13:54:56;;;;;;;4.63;3.03;;;;;;;;;;5004168;28;20378;-63
2021/06/18 13:57:22;;;;;;;5.00;3.45;;;;;;;;;;5003171;28;20073;-63
2021/06/18 13:59:47;;;;;;;6.30;3.47;;;;;;;;;;5001393;28;20050;-62
2021/06/18 14:02:13;;;;;;;5.55;3.20;;;;;;;;;;5002888;28;20042;-61
2021/06/18 14:04:38;;;;;;;7.13;3.80;;;;;;;;;;5004193;28;20113;-61
2021/06/18 14:07:03;;;;;;;7.65;3.58;;;;;;;;;;5002107;28;20116;-61
2021/06/18 14:09:29;;;;;;;7.00;3.67;;;;;;;;;;4999633;28;20034;-61
2021/06/18 14:11:54;;;;;;;4.57;3.03;;;;;;;;;;5004191;28;20034;-61
2021/06/18 14:14:20;;;;;;;5.82;3.10;;;;;;;;;;5002156;28;20040;-61
2021/06/18 14:16:51;;;;;;;4.90;2.75;;;;;;;;;;5005697;28;20033;-61
2021/06/18 14:19:16;;;;;;;4.85;2.90;;;;;;;;;;4998180;28;20087;-61
2021/06/18 14:21:43;;;;;;;6.38;2.70;;;;;;;;;;5003294;28;20116;-62
2021/06/18 14:24:09;;;;;;;5.75;2.90;;;;;;;;;;5002290;28;20034;-61
2021/06/18 14:26:34;;;;;;;7.03;2.80;;;;;;;;;;5001309;28;20029;-61
2021/06/18 14:29:00;;;;;;;7.82;3.00;;;;;;;;;;4996349;28;20030;-62
2021/06/18 14:31:25;;;;;;;6.15;3.40;;;;;;;;;;4999293;28;20030;-62
2021/06/18 14:33:51;;;;;;;4.15;2.80;;;;;;;;;;5005154;28;20042;-63
2021/06/18 14:36:17;;;;;;;6.28;3.30;;;;;;;;;;5005110;28;20044;-62
2021/06/18 14:38:42;;;;;;;6.03;3.00;;;;;;;;;;4998541;28;20085;-62
2021/06/18 14:41:08;;;;;;;5.28;3.30;;;;;;;;;;5001946;28;20037;-62
2021/06/18 14:43:34;;;;;;;5.20;3.13;;;;;;;;;;5003320;28;20022;-62
2021/06/18 14:46:00;;;;;;;4.93;2.95;;;;;;;;;;5000893;28;20480;-62
2021/06/18 14:48:26;;;;;;;4.88;3.00;;;;;;;;;;5002899;28;20038;-62
2021/06/18 14:50:51;;;;;;;5.18;2.80;;;;;;;;;;5001760;28;20033;-63
2021/06/18 14:53:16;;;;;;;5.68;3.13;;;;;;;;;;5003538;28;20038;-62